createdAt,value
2023-04-07T00:00:09.010Z,4.10
2023-04-07T00:02:37.045Z,4.50
2023-04-07T00:05:04.936Z,4.35
2023-04-07T00:07:33.885Z,3.42
2023-04-07T00:10:05.206Z,3.22
2023-04-07T00:12:34.455Z,3.72
2023-04-07T00:15:02.100Z,3.75
2023-04-07T00:17:31.251Z,3.45
2023-04-07T00:19:58.904Z,5.13
2023-04-07T00:22:26.638Z,3.45
2023-04-07T00:24:54.498Z,3.70
2023-04-07T00:27:23.420Z,2.67
2023-04-07T00:29:55.316Z,3.80
2023-04-07T00:32:23.169Z,3.50
2023-04-07T00:34:51.120Z,3.55
2023-04-07T00:37:19.336Z,3.13
2023-04-07T00:39:47.439Z,3.00
2023-04-07T00:42:15.454Z,3.58
2023-04-07T00:44:43.115Z,2.65
2023-04-07T00:47:12.729Z,2.92
2023-04-07T00:49:40.384Z,3.08
2023-04-07T00:52:09.192Z,3.08
2023-04-07T00:54:36.893Z,4.15
2023-04-07T00:57:04.573Z,4.13
2023-04-07T00:59:32.653Z,3.67
2023-04-07T01:02:04.207Z,3.45
2023-04-07T01:04:34.690Z,3.50
2023-04-07T01:07:05.125Z,4.57
2023-04-07T01:09:36.930Z,4.00
2023-04-07T01:12:08.893Z,4.28
2023-04-07T01:14:38.828Z,4.18
2023-04-07T01:17:08.075Z,5.97
2023-04-07T01:19:38.399Z,4.10
2023-04-07T01:22:08.870Z,4.18
2023-04-07T01:24:47.277Z,4.18
2023-04-07T01:27:20.168Z,5.25
2023-04-07T01:29:50.911Z,5.20
2023-04-07T01:32:20.403Z,5.15
2023-04-07T01:34:49.268Z,4.53
2023-04-07T01:37:17.640Z,4.82
2023-04-07T01:39:45.929Z,5.05
2023-04-07T01:42:14.020Z,4.25
2023-04-07T01:44:42.178Z,4.70
2023-04-07T01:47:11.292Z,4.38
2023-04-07T01:49:39.241Z,4.47
2023-04-07T01:52:07.302Z,4.30
2023-04-07T01:54:36.540Z,4.47
2023-04-07T01:57:04.259Z,3.95
2023-04-07T01:59:32.537Z,4.28
2023-04-07T02:02:00.569Z,3.88
2023-04-07T02:04:32.629Z,4.15
2023-04-07T02:07:03.080Z,3.63
2023-04-07T02:09:32.696Z,3.97
2023-04-07T02:12:02.114Z,3.55
2023-04-07T02:14:29.906Z,3.45
2023-04-07T02:16:58.253Z,3.28
2023-04-07T02:19:26.277Z,3.40
2023-04-07T02:21:55.658Z,3.65
2023-04-07T02:24:23.246Z,3.28
2023-04-07T02:26:51.175Z,3.88
2023-04-07T02:29:18.840Z,3.97
2023-04-07T02:31:46.534Z,4.28
2023-04-07T02:34:14.203Z,3.42
2023-04-07T02:36:42.035Z,4.32
2023-04-07T02:39:11.617Z,4.43
2023-04-07T02:41:39.337Z,4.28
2023-04-07T02:44:07.079Z,3.60
2023-04-07T02:46:35.316Z,3.28
2023-04-07T02:49:03.163Z,4.03
2023-04-07T02:51:31.351Z,4.13
2023-04-07T02:53:59.144Z,4.10
2023-04-07T02:56:28.142Z,3.80
2023-04-07T02:58:55.773Z,4.30
2023-04-07T03:01:23.420Z,5.65
2023-04-07T03:03:51.262Z,5.10
2023-04-07T03:06:19.058Z,4.82
2023-04-07T03:08:46.700Z,5.60
2023-04-07T03:11:14.389Z,5.03
2023-04-07T03:13:43.433Z,5.28
2023-04-07T03:16:11.751Z,5.38
2023-04-07T03:18:39.490Z,5.70
2023-04-07T03:21:07.431Z,6.90
2023-04-07T03:23:35.168Z,6.82
2023-04-07T03:26:02.790Z,6.70
2023-04-07T03:28:30.669Z,6.72
2023-04-07T03:30:59.874Z,6.88
2023-04-07T03:33:27.496Z,7.25
2023-04-07T03:35:55.143Z,7.70
2023-04-07T03:38:23.007Z,8.65
2023-04-07T03:40:50.933Z,7.10
2023-04-07T03:43:18.600Z,6.90
2023-04-07T03:45:46.600Z,6.93
2023-04-07T03:48:15.742Z,7.75
2023-04-07T03:50:43.365Z,6.95
2023-04-07T03:53:17.155Z,7.57
2023-04-07T03:55:44.827Z,7.70
2023-04-07T03:58:12.720Z,7.68
2023-04-07T04:00:40.776Z,7.47
2023-04-07T04:03:08.549Z,7.55
2023-04-07T04:05:37.718Z,8.02
2023-04-07T04:08:05.810Z,7.85
2023-04-07T04:10:33.419Z,8.73
2023-04-07T04:13:03.709Z,10.38
2023-04-07T04:15:31.354Z,8.40
2023-04-07T04:17:59.096Z,8.38
2023-04-07T04:20:27.071Z,9.85
2023-04-07T04:22:56.072Z,7.47
2023-04-07T04:25:23.870Z,9.93
2023-04-07T04:27:51.786Z,9.18
2023-04-07T04:30:19.584Z,9.45
2023-04-07T04:32:47.653Z,9.07
2023-04-07T04:35:15.592Z,9.95
2023-04-07T04:37:44.097Z,9.60
2023-04-07T04:40:14.652Z,11.18
2023-04-07T04:42:42.540Z,10.23
2023-04-07T04:45:11.136Z,8.52
2023-04-07T04:47:39.863Z,9.73
2023-04-07T04:50:09.091Z,9.13
2023-04-07T04:52:38.145Z,10.27
2023-04-07T04:55:06.110Z,9.07
2023-04-07T04:57:36.269Z,10.32
2023-04-07T05:00:04.553Z,8.98
2023-04-07T05:02:33.672Z,8.65
2023-04-07T05:05:01.606Z,10.00
2023-04-07T05:07:29.438Z,10.82
2023-04-07T05:09:57.110Z,10.18
2023-04-07T05:12:24.759Z,11.10
2023-04-07T05:14:53.738Z,10.27
2023-04-07T05:17:21.583Z,10.13
2023-04-07T05:19:49.296Z,12.15
2023-04-07T05:22:17.244Z,11.55
2023-04-07T05:24:44.989Z,10.13
2023-04-07T05:27:12.592Z,11.30
2023-04-07T05:29:40.188Z,9.82
2023-04-07T05:32:09.326Z,9.70
2023-04-07T05:34:37.012Z,9.50
2023-04-07T05:37:04.785Z,12.32
2023-04-07T05:39:32.482Z,9.90
2023-04-07T05:42:00.450Z,10.50
2023-04-07T05:44:28.110Z,9.75
2023-04-07T05:46:57.203Z,11.20
2023-04-07T05:49:26.543Z,11.73
2023-04-07T05:51:54.190Z,9.63
2023-04-07T05:54:22.047Z,10.90
2023-04-07T05:56:49.803Z,10.13
2023-04-07T05:59:17.554Z,9.60
2023-04-07T06:01:45.241Z,10.80
2023-04-07T06:04:12.964Z,10.32
2023-04-07T06:06:41.953Z,9.18
2023-04-07T06:09:11.054Z,10.70
2023-04-07T06:11:38.713Z,10.10
2023-04-07T06:14:06.310Z,10.55
2023-04-07T06:16:33.990Z,9.85
2023-04-07T06:19:02.518Z,9.75
2023-04-07T06:21:36.283Z,10.65
2023-04-07T06:24:05.404Z,8.40
2023-04-07T06:26:33.202Z,8.48
2023-04-07T06:29:01.201Z,6.88
2023-04-07T06:31:29.432Z,8.23
2023-04-07T06:33:57.041Z,8.68
2023-04-07T06:36:24.921Z,8.77
2023-04-07T06:38:52.603Z,7.75
2023-04-07T06:41:21.699Z,8.65
2023-04-07T06:43:51.347Z,8.35
2023-04-07T06:46:20.927Z,7.28
2023-04-07T06:48:48.732Z,7.90
2023-04-07T06:51:16.454Z,7.32
2023-04-07T06:53:44.349Z,7.55
2023-04-07T06:56:12.597Z,5.60
2023-04-07T06:58:42.016Z,7.47
2023-04-07T07:01:09.697Z,6.40
2023-04-07T07:03:37.486Z,6.40
2023-04-07T07:06:05.613Z,5.53
2023-04-07T07:08:33.255Z,6.50
2023-04-07T07:11:01.108Z,5.85
2023-04-07T07:13:29.498Z,5.40
2023-04-07T07:15:59.296Z,6.10
2023-04-07T07:18:27.326Z,6.47
2023-04-07T07:20:55.460Z,5.93
2023-04-07T07:23:23.300Z,5.18
2023-04-07T07:25:50.958Z,6.40
2023-04-07T07:28:18.728Z,6.82
2023-04-07T07:30:46.402Z,7.28
2023-04-07T07:33:15.492Z,6.85
2023-04-07T07:35:43.224Z,6.82
2023-04-07T07:38:10.885Z,7.13
2023-04-07T07:40:38.510Z,6.95
2023-04-07T07:43:06.225Z,7.38
2023-04-07T07:45:34.653Z,5.35
2023-04-07T07:48:02.347Z,6.28
2023-04-07T07:50:31.391Z,6.18
2023-04-07T07:52:59.400Z,5.93
2023-04-07T07:55:27.020Z,5.03
2023-04-07T07:57:54.878Z,4.97
2023-04-07T08:00:24.037Z,4.63
2023-04-07T08:02:51.782Z,3.97
2023-04-07T08:05:19.477Z,3.20
2023-04-07T08:07:48.936Z,2.78
2023-04-07T08:10:16.602Z,2.95
2023-04-07T08:12:44.445Z,3.60
2023-04-07T08:15:12.199Z,3.97
2023-04-07T08:17:39.910Z,2.90
2023-04-07T08:20:08.464Z,2.80
2023-04-07T08:22:36.241Z,2.90
2023-04-07T08:25:05.475Z,3.35
2023-04-07T08:27:33.125Z,2.70
2023-04-07T08:30:03.372Z,3.13
2023-04-07T08:32:35.635Z,3.00
2023-04-07T08:35:03.324Z,3.08
2023-04-07T08:37:31.379Z,3.25
2023-04-07T08:39:59.038Z,3.05
2023-04-07T08:42:30.340Z,3.13
2023-04-07T08:45:00.240Z,3.72
2023-04-07T08:47:29.305Z,3.50
2023-04-07T08:49:58.274Z,3.15
2023-04-07T08:52:28.553Z,3.30
2023-04-07T08:54:56.237Z,3.25
2023-04-07T08:57:23.868Z,2.95
2023-04-07T08:59:52.903Z,4.03
2023-04-07T09:02:21.019Z,2.75
2023-04-07T09:04:48.740Z,3.10
2023-04-07T09:07:16.375Z,2.65
2023-04-07T09:09:43.993Z,2.67
2023-04-07T09:12:11.684Z,3.10
2023-04-07T09:14:39.484Z,3.60
2023-04-07T09:17:09.130Z,2.00
2023-04-07T09:19:38.213Z,2.03
2023-04-07T09:22:05.914Z,2.92
2023-04-07T09:24:33.494Z,4.00
2023-04-07T09:27:11.383Z,3.00
2023-04-07T09:29:41.406Z,2.25
2023-04-07T09:32:10.572Z,1.85
2023-04-07T09:34:41.046Z,2.50
2023-04-07T09:37:09.587Z,2.38
2023-04-07T09:39:49.991Z,2.38
2023-04-07T09:42:17.703Z,3.38
2023-04-07T09:44:45.506Z,2.45
2023-04-07T09:47:14.467Z,4.43
2023-04-07T09:49:53.823Z,2.80
2023-04-07T09:52:23.722Z,2.88
2023-04-07T09:54:52.123Z,3.05
2023-04-07T09:57:20.170Z,3.38
2023-04-07T09:59:48.674Z,3.50
2023-04-07T10:02:18.110Z,3.45
2023-04-07T10:04:45.942Z,3.33
2023-04-07T10:07:15.360Z,2.60
2023-04-07T10:09:43.173Z,2.03
2023-04-07T10:12:10.942Z,2.63
2023-04-07T10:14:40.233Z,2.20
2023-04-07T10:17:08.766Z,1.17
2023-04-07T10:19:38.297Z,1.38
2023-04-07T10:22:07.050Z,1.83
2023-04-07T10:24:40.514Z,1.52
2023-04-07T10:27:11.875Z,1.55
2023-04-07T10:29:42.130Z,1.13
2023-04-07T10:32:09.817Z,1.50
2023-04-07T10:35:07.569Z,1.63
2023-04-07T10:37:37.507Z,1.80
2023-04-07T10:40:29.105Z,2.05
2023-04-07T10:42:57.756Z,1.50
2023-04-07T10:45:44.599Z,1.63
2023-04-07T10:48:12.866Z,1.83
2023-04-07T10:50:40.578Z,1.65
2023-04-07T10:53:10.693Z,2.10
2023-04-07T10:55:39.219Z,1.73
2023-04-07T10:58:23.109Z,1.00
2023-04-07T11:01:09.227Z,1.33
2023-04-07T11:03:38.753Z,1.00
2023-04-07T11:06:08.269Z,0.70
2023-04-07T11:08:38.169Z,0.70
2023-04-07T11:11:09.121Z,0.80
2023-04-07T11:13:41.686Z,0.80
2023-04-07T11:16:09.947Z,1.10
2023-04-07T11:18:37.869Z,1.05
2023-04-07T11:21:09.290Z,1.70
2023-04-07T11:23:40.908Z,1.20
2023-04-07T11:26:10.174Z,1.52
2023-04-07T11:28:46.148Z,1.30
2023-04-07T11:31:14.513Z,1.33
2023-04-07T11:33:43.843Z,0.88
2023-04-07T11:36:11.788Z,1.50
2023-04-07T11:38:44.340Z,1.00
2023-04-07T11:41:13.617Z,0.77
2023-04-07T11:43:42.590Z,0.52
2023-04-07T11:46:11.584Z,1.05
2023-04-07T11:48:40.324Z,0.80
2023-04-07T11:51:08.809Z,1.73
2023-04-07T11:53:38.137Z,0.90
2023-04-07T11:56:10.355Z,0.90
2023-04-07T11:58:38.787Z,0.98
2023-04-07T12:01:09.011Z,0.95
2023-04-07T12:03:38.219Z,1.45
2023-04-07T12:06:06.372Z,1.00
2023-04-07T12:08:41.075Z,1.00
2023-04-07T12:11:10.714Z,1.42
2023-04-07T12:13:38.649Z,0.65
2023-04-07T12:16:06.580Z,1.17
2023-04-07T12:18:34.263Z,0.60
2023-04-07T12:21:02.019Z,0.70
2023-04-07T12:23:29.792Z,0.60
2023-04-07T12:25:57.448Z,0.60
2023-04-07T12:28:27.147Z,0.82
2023-04-07T12:30:55.126Z,0.80
2023-04-07T12:33:22.812Z,1.00
2023-04-07T12:35:50.537Z,0.98
2023-04-07T12:38:18.435Z,1.40
2023-04-07T12:40:46.374Z,0.70
2023-04-07T12:43:14.200Z,1.00
2023-04-07T12:45:43.260Z,1.10
2023-04-07T12:48:10.944Z,1.00
2023-04-07T12:50:38.629Z,1.30
2023-04-07T12:53:06.333Z,1.45
2023-04-07T12:55:35.671Z,0.93
2023-04-07T12:58:03.553Z,1.25
2023-04-07T13:00:31.565Z,1.25
2023-04-07T13:03:00.727Z,1.35
2023-04-07T13:05:36.893Z,1.00
2023-04-07T13:08:05.253Z,1.42
2023-04-07T13:10:32.934Z,1.27
2023-04-07T13:13:00.603Z,1.60
2023-04-07T13:15:28.341Z,1.30
2023-04-07T13:17:56.368Z,1.70
2023-04-07T13:20:28.228Z,2.20
2023-04-07T13:25:28.530Z,1.23
2023-04-07T13:27:56.262Z,1.90
2023-04-07T13:30:23.946Z,1.17
2023-04-07T13:32:52.112Z,1.42
2023-04-07T13:35:19.923Z,1.83
2023-04-07T13:37:49.001Z,1.65
2023-04-07T13:40:16.618Z,1.67
2023-04-07T13:42:47.169Z,1.42
2023-04-07T13:45:14.883Z,1.42
2023-04-07T13:47:43.540Z,1.92
2023-04-07T13:50:11.520Z,0.90
2023-04-07T13:52:39.200Z,2.22
2023-04-07T13:55:08.892Z,1.63
2023-04-07T13:57:36.734Z,1.23
2023-04-07T14:00:04.925Z,1.40
2023-04-07T14:02:32.963Z,1.63
2023-04-07T14:05:00.602Z,1.85
2023-04-07T14:07:28.298Z,1.38
2023-04-07T14:09:55.995Z,1.27
2023-04-07T14:12:26.132Z,1.67
2023-04-07T14:14:54.867Z,1.52
2023-04-07T14:17:22.573Z,1.73
2023-04-07T14:19:51.694Z,1.10
2023-04-07T14:22:19.994Z,1.48
2023-04-07T14:24:47.772Z,1.77
2023-04-07T14:27:21.364Z,1.25
2023-04-07T14:29:50.411Z,1.15
2023-04-07T14:32:18.056Z,1.00
2023-04-07T14:34:45.790Z,1.17
2023-04-07T14:37:14.184Z,1.50
2023-04-07T14:39:48.470Z,0.88
2023-04-07T14:42:23.433Z,1.52
2023-04-07T14:44:53.180Z,1.30
2023-04-07T14:47:21.050Z,1.33
2023-04-07T14:49:49.248Z,1.45
2023-04-07T14:52:18.182Z,1.00
2023-04-07T14:54:45.835Z,1.05
2023-04-07T14:57:13.803Z,0.80
2023-04-07T14:59:41.453Z,1.23
2023-04-07T15:02:10.493Z,1.40
2023-04-07T15:04:38.553Z,1.10
2023-04-07T15:07:07.284Z,1.40
2023-04-07T15:09:35.048Z,1.10
2023-04-07T15:12:02.713Z,0.98
2023-04-07T15:14:30.867Z,0.98
2023-04-07T15:16:58.629Z,0.95
2023-04-07T15:19:27.619Z,1.20
2023-04-07T15:21:56.023Z,1.10
2023-04-07T15:24:23.665Z,1.17
2023-04-07T15:26:51.239Z,1.35
2023-04-07T15:29:18.952Z,1.23
2023-04-07T15:31:48.257Z,1.52
2023-04-07T15:34:23.703Z,1.15
2023-04-07T15:39:20.598Z,1.90
2023-04-07T15:41:49.733Z,1.85
2023-04-07T15:44:18.890Z,1.83
2023-04-07T15:46:47.716Z,1.70
2023-04-07T15:49:20.017Z,1.50
2023-04-07T15:51:47.719Z,1.08
2023-04-07T15:54:15.356Z,1.30
2023-04-07T15:56:44.480Z,1.10
2023-04-07T15:59:12.114Z,1.23
2023-04-07T16:01:39.901Z,1.10
2023-04-07T16:04:07.859Z,1.33
2023-04-07T16:06:35.938Z,1.38
2023-04-07T16:09:03.576Z,1.23
2023-04-07T16:11:31.183Z,1.75
2023-04-07T16:14:00.200Z,0.68
2023-04-07T16:16:27.916Z,1.40
2023-04-07T16:18:55.532Z,1.50
2023-04-07T16:21:23.131Z,1.10
2023-04-07T16:23:50.912Z,1.10
2023-04-07T16:26:18.540Z,0.70
2023-04-07T16:28:47.030Z,1.23
2023-04-07T16:31:16.031Z,0.85
2023-04-07T16:33:43.673Z,1.10
2023-04-07T16:36:11.395Z,1.33
2023-04-07T16:38:39.127Z,1.60
2023-04-07T16:41:08.109Z,1.40
2023-04-07T16:43:35.830Z,1.20
2023-04-07T16:46:04.241Z,1.30
2023-04-07T16:48:33.340Z,1.85
2023-04-07T16:51:01.012Z,1.50
2023-04-07T16:53:28.742Z,1.40
2023-04-07T16:55:56.450Z,2.15
2023-04-07T16:58:24.122Z,2.25
2023-04-07T17:00:51.802Z,1.52
2023-04-07T17:03:19.638Z,1.80
2023-04-07T17:05:49.461Z,1.48
2023-04-07T17:08:17.326Z,1.48
2023-04-07T17:10:44.966Z,1.30
2023-04-07T17:13:12.602Z,1.75
2023-04-07T17:15:40.306Z,1.23
2023-04-07T17:18:08.127Z,1.60
2023-04-07T17:20:35.972Z,1.15
2023-04-07T17:23:05.492Z,1.83
2023-04-07T17:25:33.153Z,1.20
2023-04-07T17:28:00.836Z,1.80
2023-04-07T17:30:28.625Z,1.35
2023-04-07T17:32:56.332Z,1.33
2023-04-07T17:35:25.090Z,1.38
2023-04-07T17:37:53.068Z,1.98
2023-04-07T17:40:22.244Z,1.70
2023-04-07T17:42:50.016Z,2.50
2023-04-07T17:45:17.823Z,1.73
2023-04-07T17:47:46.939Z,1.30
2023-04-07T17:50:14.856Z,1.55
2023-04-07T17:53:00.523Z,1.70
2023-04-07T17:55:29.594Z,1.60
2023-04-07T17:58:01.128Z,1.40
2023-04-07T18:00:29.514Z,1.98
2023-04-07T18:02:57.776Z,1.77
2023-04-07T18:05:25.723Z,1.90
2023-04-07T18:07:54.749Z,1.38
2023-04-07T18:10:26.555Z,1.55
2023-04-07T18:12:56.179Z,1.42
2023-04-07T18:15:24.798Z,1.50
2023-04-07T18:17:54.981Z,1.30
2023-04-07T18:20:22.745Z,1.20
2023-04-07T18:22:51.928Z,1.23
2023-04-07T18:25:19.663Z,1.17
2023-04-07T18:27:47.424Z,1.63
2023-04-07T18:30:16.447Z,1.73
2023-04-07T18:32:45.089Z,1.70
2023-04-07T18:35:12.957Z,2.20
2023-04-07T18:37:44.207Z,2.05
2023-04-07T18:40:13.719Z,1.85
2023-04-07T18:42:41.414Z,2.45
2023-04-07T18:45:09.498Z,1.70
2023-04-07T18:47:39.078Z,2.15
2023-04-07T18:50:07.263Z,2.65
2023-04-07T18:52:35.052Z,1.70
2023-04-07T18:55:02.815Z,2.22
2023-04-07T18:57:30.566Z,2.35
2023-04-07T18:59:58.509Z,1.88
2023-04-07T19:02:26.702Z,2.30
2023-04-07T19:04:55.848Z,2.00
2023-04-07T19:07:23.496Z,2.17
2023-04-07T19:09:53.819Z,1.83
2023-04-07T19:12:21.487Z,1.90
2023-04-07T19:14:49.209Z,1.90
2023-04-07T19:17:17.017Z,2.00
2023-04-07T19:19:44.867Z,1.88
2023-04-07T19:22:14.298Z,1.52
2023-04-07T19:24:42.096Z,2.40
2023-04-07T19:27:12.074Z,2.38
2023-04-07T19:29:39.706Z,2.28
2023-04-07T19:32:07.439Z,2.33
2023-04-07T19:34:35.314Z,1.38
2023-04-07T19:37:02.931Z,2.17
2023-04-07T19:39:32.116Z,2.00
2023-04-07T19:42:01.056Z,2.55
2023-04-07T19:44:28.668Z,2.42
2023-04-07T19:46:56.496Z,2.60
2023-04-07T19:49:24.769Z,2.28
2023-04-07T19:51:53.427Z,2.70
2023-04-07T19:54:21.103Z,2.85
2023-04-07T19:56:50.252Z,2.95
2023-04-07T19:59:17.953Z,2.15
2023-04-07T20:01:45.746Z,2.40
2023-04-07T20:04:13.554Z,2.70
2023-04-07T20:06:43.792Z,2.47
2023-04-07T20:09:11.524Z,2.65
2023-04-07T20:11:39.160Z,2.70
2023-04-07T20:14:08.143Z,2.20
2023-04-07T20:16:35.851Z,2.58
2023-04-07T20:19:04.512Z,2.80
2023-04-07T20:21:32.980Z,2.75
2023-04-07T20:24:00.994Z,2.53
2023-04-07T20:26:28.635Z,2.15
2023-04-07T20:28:56.428Z,2.90
2023-04-07T20:31:25.461Z,2.13
2023-04-07T20:33:53.184Z,3.03
2023-04-07T20:36:21.026Z,2.35
2023-04-07T20:38:49.165Z,2.40
2023-04-07T20:41:17.613Z,2.83
2023-04-07T20:43:45.574Z,2.88
2023-04-07T20:46:13.427Z,2.70
2023-04-07T20:48:42.445Z,2.83
2023-04-07T20:51:10.184Z,3.00
2023-04-07T20:53:37.884Z,2.83
2023-04-07T20:56:05.664Z,2.65
2023-04-07T20:58:33.579Z,3.40
2023-04-07T21:01:01.597Z,3.05
2023-04-07T21:03:31.024Z,3.50
2023-04-07T21:06:00.917Z,3.25
2023-04-07T21:08:29.147Z,2.80
2023-04-07T21:10:57.170Z,3.55
2023-04-07T21:13:27.163Z,3.15
2023-04-07T21:15:54.918Z,3.42
2023-04-07T21:18:22.669Z,3.35
2023-04-07T21:20:50.722Z,2.80
2023-04-07T21:23:19.695Z,3.10
2023-04-07T21:25:47.641Z,3.58
2023-04-07T21:28:15.707Z,2.97
2023-04-07T21:30:43.408Z,2.97
2023-04-07T21:33:11.198Z,3.40
2023-04-07T21:35:39.371Z,4.22
2023-04-07T21:38:07.088Z,3.15
2023-04-07T21:40:36.145Z,3.30
2023-04-07T21:43:03.889Z,4.40
2023-04-07T21:45:32.128Z,4.43
2023-04-07T21:50:48.035Z,3.65
2023-04-07T21:53:15.654Z,3.97
2023-04-07T21:55:44.692Z,4.40
2023-04-07T21:58:12.407Z,4.05
2023-04-07T22:00:40.147Z,4.15
2023-04-07T22:03:08.003Z,4.45
2023-04-07T22:05:36.141Z,3.58
2023-04-07T22:08:04.164Z,3.67
2023-04-07T22:10:32.305Z,4.40
2023-04-07T22:13:01.458Z,4.38
2023-04-07T22:15:29.082Z,4.28
2023-04-07T22:17:57.770Z,3.45
2023-04-07T22:20:27.916Z,3.53
2023-04-07T22:22:57.616Z,3.40
2023-04-07T22:25:25.625Z,3.92
2023-04-07T22:27:53.785Z,3.53
2023-04-07T22:30:25.188Z,3.20
2023-04-07T22:32:52.846Z,2.95
2023-04-07T22:35:21.344Z,3.60
2023-04-07T22:37:49.048Z,3.33
2023-04-07T22:40:16.728Z,3.70
2023-04-07T22:42:44.545Z,3.72
2023-04-07T22:45:12.172Z,4.15
2023-04-07T22:47:41.649Z,3.80
2023-04-07T22:50:09.556Z,4.28
2023-04-07T22:52:37.167Z,4.28
2023-04-07T22:55:04.995Z,4.05
2023-04-07T22:57:32.580Z,4.32
2023-04-07T23:00:00.574Z,4.72
2023-04-07T23:02:28.351Z,4.28
2023-04-07T23:04:57.435Z,4.30
2023-04-07T23:07:25.107Z,4.30
2023-04-07T23:09:53.574Z,3.67
2023-04-07T23:12:21.364Z,3.08
2023-04-07T23:14:49.064Z,4.35
2023-04-07T23:17:17.072Z,4.05
2023-04-07T23:19:44.885Z,3.30
2023-04-07T23:22:13.842Z,3.80
2023-04-07T23:24:41.685Z,5.05
2023-04-07T23:27:09.373Z,3.30
2023-04-07T23:29:37.314Z,5.57
2023-04-07T23:32:06.773Z,4.40
2023-04-07T23:34:34.419Z,3.95
2023-04-07T23:37:02.331Z,3.85
2023-04-07T23:39:31.742Z,4.20
2023-04-07T23:42:00.054Z,4.25
2023-04-07T23:44:27.702Z,3.60
2023-04-07T23:46:55.346Z,4.05
2023-04-07T23:49:23.078Z,3.88
2023-04-07T23:51:51.347Z,4.05
2023-04-07T23:54:18.950Z,4.35
2023-04-07T23:56:47.980Z,3.92
2023-04-07T23:59:15.733Z,4.72
